Time;durP1;ratioP1;P1;durP2;ratioP2;P2;SDS_P1;SDS_P2;PMS_P1;PMS_P2;Temp;Humidity;BMP_temperature;BMP_pressure;BME280_temperature;BME280_humidity;BME280_pressure;Samples;Min_cycle;Max_cycle;Signal;HPM_P1;HPM_P2
2022/08/29 00:06:03;;;;;;;10.93;9.90;;;;;18.30;99061.00;;;;16791285;28;20636;-49
2022/08/29 00:14:07;;;;;;;10.40;9.30;;;;;18.20;99062.00;;;;16792051;28;20312;-52
2022/08/29 00:22:09;;;;;;;10.50;9.47;;;;;18.20;99059.00;;;;16790619;28;20288;-49
2022/08/29 00:30:14;;;;;;;10.97;9.87;;;;;18.50;99062.00;;;;16792143;28;20309;-50
2022/08/29 00:38:17;;;;;;;12.17;9.70;;;;;18.40;99061.00;;;;16790290;28;20212;-50
2022/08/29 00:46:45;;;;;;;10.90;10.00;;;;;18.30;99064.00;;;;16789714;28;20253;-50
2022/08/29 00:54:51;;;;;;;11.17;10.10;;;;;18.30;99063.00;;;;16786635;28;20323;-49
2022/08/29 01:02:55;;;;;;;11.77;10.67;;;;;18.10;99069.00;;;;16788492;28;20217;-49
2022/08/29 01:19:32;;;;;;;13.20;12.10;;;;;18.10;99082.00;;;;16788325;28;20258;-50
2022/08/29 01:27:38;;;;;;;14.30;12.80;;;;;18.00;99084.00;;;;16787035;28;20213;-50
2022/08/29 01:35:42;;;;;;;11.37;10.30;;;;;17.80;99085.00;;;;16786751;28;20221;-50
2022/08/29 01:43:50;;;;;;;13.40;12.20;;;;;17.60;99090.00;;;;16785239;28;20598;-50
2022/08/29 01:51:53;;;;;;;14.40;12.10;;;;;17.60;99089.00;;;;16784453;28;20228;-50
2022/08/29 01:59:57;;;;;;;13.23;11.87;;;;;17.80;99087.00;;;;16783621;28;20233;-50
2022/08/29 02:08:02;;;;;;;13.67;12.37;;;;;17.40;99077.00;;;;16784794;28;20300;-50
2022/08/29 02:16:06;;;;;;;13.57;12.17;;;;;17.60;99092.00;;;;16783975;28;20221;-50
2022/08/29 02:24:09;;;;;;;13.90;12.60;;;;;17.40;99078.00;;;;16782495;28;20310;-50
2022/08/29 02:32:14;;;;;;;14.33;13.03;;;;;17.30;99078.00;;;;16798779;28;20217;-50
2022/08/29 02:40:17;;;;;;;13.80;12.20;;;;;17.30;99072.00;;;;16782933;28;20666;-50
2022/08/29 02:48:21;;;;;;;13.97;12.67;;;;;17.30;99069.00;;;;16783680;28;20227;-49
2022/08/29 02:56:23;;;;;;;13.17;11.90;;;;;17.20;99066.00;;;;16783393;28;20716;-49
2022/08/29 03:04:27;;;;;;;15.47;13.90;;;;;17.20;99081.00;;;;16852493;28;20227;-48
2022/08/29 03:12:31;;;;;;;14.43;13.10;;;;;17.20;99073.00;;;;16861660;28;20305;-50
2022/08/29 03:20:37;;;;;;;13.77;12.57;;;;;17.10;99075.00;;;;16861494;28;20233;-50
2022/08/29 03:28:39;;;;;;;15.10;13.50;;;;;17.10;99064.00;;;;16861472;28;20226;-49
2022/08/29 03:36:43;;;;;;;14.47;12.97;;;;;17.00;99069.00;;;;16810078;28;20230;-48
2022/08/29 03:44:46;;;;;;;14.87;13.57;;;;;17.10;99080.00;;;;16793260;28;20763;-49
2022/08/29 03:52:49;;;;;;;15.00;13.60;;;;;16.90;99091.00;;;;16814985;22;20709;31
2022/08/29 04:00:52;;;;;;;15.67;14.27;;;;;16.80;99079.00;;;;16726552;28;20218;-49
2022/08/29 04:08:57;;;;;;;16.10;14.70;;;;;16.80;99087.00;;;;16672857;28;20300;-49
2022/08/29 04:17:00;;;;;;;16.00;14.60;;;;;16.80;99085.00;;;;16659359;28;20214;-49
2022/08/29 04:25:05;;;;;;;15.43;14.10;;;;;17.00;99090.00;;;;16659055;28;20227;-49
2022/08/29 04:33:09;;;;;;;16.10;14.50;;;;;17.10;99111.00;;;;16658357;28;20210;-49
2022/08/29 04:41:13;;;;;;;14.17;12.97;;;;;17.00;99094.00;;;;16658600;28;20649;-49
2022/08/29 04:49:16;;;;;;;15.63;14.10;;;;;17.40;99106.00;;;;16658006;28;20214;-49
2022/08/29 04:57:19;;;;;;;16.37;14.20;;;;;17.30;99098.00;;;;16656689;28;20780;-49
2022/08/29 05:05:22;;;;;;;15.97;14.40;;;;;17.10;99106.00;;;;16656786;28;20213;-49
2022/08/29 05:13:27;;;;;;;15.13;13.77;;;;;16.90;99115.00;;;;16655913;28;20234;-49
2022/08/29 05:21:32;;;;;;;14.87;13.57;;;;;17.10;99124.00;;;;16655058;28;20206;-49
2022/08/29 05:29:38;;;;;;;13.77;12.47;;;;;16.90;99121.00;;;;16655043;28;20230;-49
2022/08/29 05:37:41;;;;;;;14.60;13.20;;;;;17.40;99126.00;;;;16655108;28;20211;-49
2022/08/29 05:45:45;;;;;;;14.00;12.80;;;;;17.80;99122.00;;;;16654551;28;20217;-49
2022/08/29 05:53:48;;;;;;;13.13;11.97;;;;;18.30;99126.00;;;;16654089;28;20314;-49
2022/08/29 06:01:51;;;;;;;13.53;12.37;;;;;18.50;99126.00;;;;16653757;28;20217;-49
2022/08/29 06:09:54;;;;;;;17.23;15.57;;;;;18.90;99123.00;;;;16653265;28;20321;-49
2022/08/29 06:17:58;;;;;;;21.77;16.83;;;;;20.40;99133.00;;;;16652143;28;20571;-49
2022/08/29 06:26:00;;;;;;;23.33;19.60;;;;;21.20;99131.00;;;;16651751;28;20218;-50
2022/08/29 06:34:06;;;;;;;21.70;19.60;;;;;21.20;99120.00;;;;16651874;28;20313;-49
2022/08/29 06:42:08;;;;;;;22.23;18.67;;;;;21.40;99123.00;;;;16663366;28;20273;-49
2022/08/29 06:50:12;;;;;;;18.90;16.90;;;;;22.20;99135.00;;;;16664923;28;20511;-50
2022/08/29 06:58:14;;;;;;;20.97;18.83;;;;;21.50;99135.00;;;;16663002;28;20757;-48
2022/08/29 07:06:18;;;;;;;18.03;16.33;;;;;21.90;99138.00;;;;16657697;28;20505;-49
2022/08/29 07:14:20;;;;;;;18.50;16.63;;;;;22.80;99135.00;;;;16659574;28;20238;-49
2022/08/29 07:22:25;;;;;;;17.50;15.70;;;;;23.50;99139.00;;;;16651870;28;20328;-49
2022/08/29 07:30:28;;;;;;;19.40;16.23;;;;;23.70;99146.00;;;;16643733;28;20219;-49
2022/08/29 07:38:32;;;;;;;18.80;16.97;;;;;23.70;99142.00;;;;16646607;28;20313;-49
2022/08/29 07:46:35;;;;;;;19.47;17.87;;;;;22.70;99144.00;;;;16653054;28;20241;-49
2022/08/29 07:54:39;;;;;;;20.60;18.23;;;;;23.50;99147.00;;;;16651282;28;20240;-49
2022/08/29 08:02:41;;;;;;;16.50;14.60;;;;;24.20;99140.00;;;;16642305;28;20210;-50
2022/08/29 08:10:45;;;;;;;14.50;13.20;;;;;24.20;99137.00;;;;16655248;28;20226;-48
2022/08/29 08:18:48;;;;;;;18.17;14.53;;;;;24.00;99156.00;;;;16653667;28;20632;-49
2022/08/29 08:26:52;;;;;;;17.13;15.63;;;;;24.20;99159.00;;;;16652037;28;20309;-49
2022/08/29 08:34:55;;;;;;;18.23;15.63;;;;;24.30;99152.00;;;;16651508;28;20280;-49
2022/08/29 08:43:00;;;;;;;15.53;12.57;;;;;24.30;99151.00;;;;16651432;28;20356;-48
2022/08/29 08:51:06;;;;;;;13.40;12.10;;;;;25.20;99154.00;;;;16648733;28;20230;-49
2022/08/29 08:59:15;;;;;;;12.37;10.90;;;;;24.60;99147.00;;;;16649355;28;20229;-49
2022/08/29 09:07:27;;;;;;;13.37;10.17;;;;;25.60;99145.00;;;;16649894;28;20725;-50
2022/08/29 09:15:34;;;;;;;12.03;10.93;;;;;25.40;99151.00;;;;16652694;28;20600;-49
2022/08/29 09:23:42;;;;;;;11.60;10.50;;;;;25.50;99145.00;;;;16649572;28;20218;-49
2022/08/29 09:31:45;;;;;;;10.30;9.33;;;;;25.90;99142.00;;;;16642179;28;20215;-49
2022/08/29 09:39:58;;;;;;;10.97;9.57;;;;;25.60;99148.00;;;;16652091;28;20306;-49
2022/08/29 09:48:13;;;;;;;11.97;10.73;;;;;25.70;99140.00;;;;16651742;28;20234;-49
2022/08/29 09:56:19;;;;;;;11.03;10.00;;;;;26.90;99139.00;;;;16677049;22;20238;-48
2022/08/29 10:12:54;;;;;;;8.40;4.77;;;;;29.40;99120.00;;;;16819727;27;20641;-49
2022/08/29 10:21:12;;;;;;;5.43;4.93;;;;;29.30;99120.00;;;;16820227;28;20231;-49
2022/08/29 10:29:25;;;;;;;5.20;4.70;;;;;29.50;99126.00;;;;16784226;28;20521;-49
2022/08/29 10:37:36;;;;;;;5.20;4.70;;;;;30.20;99129.00;;;;16773057;28;20213;-49
2022/08/29 10:46:02;;;;;;;5.70;5.20;;;;;30.20;99125.00;;;;16792909;28;20229;-49
2022/08/29 10:54:09;;;;;;;6.10;5.50;;;;;28.80;99112.00;;;;16771149;28;20307;-49
2022/08/29 11:02:19;;;;;;;5.53;5.13;;;;;29.20;99118.00;;;;16772278;28;20189;-49
2022/08/29 11:10:24;;;;;;;5.57;5.10;;;;;29.90;99115.00;;;;16771673;28;20229;-49
2022/08/29 11:18:33;;;;;;;6.00;5.50;;;;;30.10;99113.00;;;;16760939;28;20217;-49
2022/08/29 11:26:44;;;;;;;6.20;5.70;;;;;30.30;99092.00;;;;16719909;28;20702;-49
2022/08/29 11:35:00;;;;;;;5.90;5.30;;;;;30.00;99094.00;;;;16725340;28;20224;-48
2022/08/29 11:43:03;;;;;;;5.00;4.60;;;;;28.90;99095.00;;;;16723713;28;20224;-49
2022/08/29 11:51:33;;;;;;;5.77;5.30;;;;;31.40;99092.00;;;;16724740;28;20357;-49
2022/08/29 11:59:58;;;;;;;5.93;5.43;;;;;29.60;99083.00;;;;16724402;28;20202;-50
2022/08/29 12:08:03;;;;;;;5.63;5.13;;;;;29.90;99075.00;;;;16726307;28;20316;-49
2022/08/29 12:16:08;;;;;;;5.40;4.90;;;;;30.50;99065.00;;;;16722684;28;20222;-48
2022/08/29 12:24:28;;;;;;;7.23;4.47;;;;;32.70;99067.00;;;;16722353;28;20226;-49
2022/08/29 12:32:40;;;;;;;5.10;4.70;;;;;31.50;99057.00;;;;16736528;28;20226;-50
2022/08/29 12:40:57;;;;;;;7.87;4.87;;;;;32.50;99054.00;;;;16721070;28;20241;-49
2022/08/29 12:49:06;;;;;;;6.00;5.37;;;;;34.10;99041.00;;;;16721125;28;20238;-50
2022/08/29 12:57:18;;;;;;;10.53;5.50;;;;;32.80;99030.00;;;;16720402;28;20289;-50
2022/08/29 13:05:22;;;;;;;4.93;4.43;;;;;35.90;99035.00;;;;16721084;28;20222;-49
2022/08/29 13:13:27;;;;;;;4.37;3.90;;;;;35.00;99020.00;;;;16719435;28;20654;-50
2022/08/29 13:21:32;;;;;;;5.03;4.63;;;;;33.10;99016.00;;;;16717291;28;20263;-49
2022/08/29 13:29:38;;;;;;;4.80;4.40;;;;;36.40;99010.00;;;;16718701;28;20582;-50
2022/08/29 13:37:42;;;;;;;5.63;5.23;;;;;35.20;99021.00;;;;16719726;28;20218;-49
2022/08/29 13:45:46;;;;;;;5.27;4.77;;;;;33.50;99033.00;;;;16717890;28;20217;-48
2022/08/29 13:53:49;;;;;;;5.20;4.80;;;;;32.90;99032.00;;;;16719063;28;20624;-49
2022/08/29 14:01:53;;;;;;;6.50;5.10;;;;;32.40;99029.00;;;;16717476;28;20626;-49
2022/08/29 14:09:56;;;;;;;5.67;5.17;;;;;33.70;99014.00;;;;16723060;28;20231;-49
2022/08/29 14:18:00;;;;;;;5.50;4.50;;;;;37.90;99010.00;;;;16734306;28;20235;-50
2022/08/29 14:26:02;;;;;;;6.37;4.10;;;;;34.10;99011.00;;;;16724363;28;20304;-50
2022/08/29 14:34:06;;;;;;;5.00;4.60;;;;;32.60;98999.00;;;;16713601;28;20702;-49
2022/08/29 14:42:09;;;;;;;5.37;4.70;;;;;36.90;98990.00;;;;16715776;28;20200;-49
2022/08/29 14:50:13;;;;;;;4.87;4.20;;;;;37.90;98985.00;;;;16737535;28;20311;-50
2022/08/29 14:58:15;;;;;;;4.80;4.40;;;;;38.00;98977.00;;;;16726314;28;20217;-50
2022/08/29 15:06:19;;;;;;;5.23;4.73;;;;;36.90;98974.00;;;;16727965;28;20238;-50
2022/08/29 15:14:22;;;;;;;5.30;4.80;;;;;38.80;98986.00;;;;16727536;28;20272;-50
2022/08/29 15:22:26;;;;;;;5.10;4.70;;;;;39.80;98974.00;;;;16726830;28;20671;-50
2022/08/29 15:30:28;;;;;;;4.57;4.17;;;;;39.50;98970.00;;;;16720177;28;20981;-50
2022/08/29 15:38:32;;;;;;;4.47;4.07;;;;;40.60;98964.00;;;;16725646;28;20224;-51
2022/08/29 15:46:35;;;;;;;4.77;4.40;;;;;39.90;98954.00;;;;16719726;28;20221;-50
2022/08/29 15:54:39;;;;;;;4.97;4.47;;;;;38.80;98944.00;;;;16727415;22;20316;-81
2022/08/29 16:02:42;;;;;;;5.53;4.77;;;;;38.10;98944.00;;;;16678593;28;20234;-81
2022/08/29 16:10:45;;;;;;;5.03;4.63;;;;;37.20;98954.00;;;;16696265;22;20235;-49
2022/08/29 16:18:48;;;;;;;5.00;4.70;;;;;36.00;98946.00;;;;16700300;28;20737;-49
2022/08/29 16:26:52;;;;;;;6.00;5.00;;;;;37.00;98934.00;;;;16674044;28;20714;-48
2022/08/29 16:34:57;;;;;;;5.30;4.67;;;;;37.10;98921.00;;;;16671612;28;20276;-48
2022/08/29 16:43:01;;;;;;;4.63;4.10;;;;;37.20;98936.00;;;;16659086;28;20292;-49
2022/08/29 16:51:04;;;;;;;4.50;4.10;;;;;38.20;98931.00;;;;16677607;28;20230;-49
2022/08/29 16:59:09;;;;;;;5.17;4.67;;;;;37.20;98926.00;;;;16655871;28;20242;-49
2022/08/29 17:07:12;;;;;;;5.90;5.40;;;;;36.80;98923.00;;;;16656064;28;20225;-49
2022/08/29 17:23:17;;;;;;;5.13;4.73;;;;;36.00;98930.00;;;;16668499;28;20198;-49
2022/08/29 17:31:21;;;;;;;5.90;5.37;;;;;36.80;98929.00;;;;16653779;28;20710;-49
2022/08/29 17:39:23;;;;;;;6.47;4.97;;;;;35.10;98935.00;;;;16654465;28;20280;-48
2022/08/29 17:47:27;;;;;;;5.90;5.40;;;;;33.00;98934.00;;;;16653593;28;20353;-48
2022/08/29 17:55:30;;;;;;;5.33;4.60;;;;;29.40;98947.00;;;;16653060;28;20210;-47
2022/08/29 18:03:34;;;;;;;8.70;4.87;;;;;28.10;98968.00;;;;16652811;28;20470;-48
2022/08/29 18:11:37;;;;;;;5.50;5.10;;;;;26.40;98972.00;;;;16651551;28;20697;-48
2022/08/29 18:19:41;;;;;;;7.50;6.00;;;;;25.40;98981.00;;;;16651818;28;20222;-47
2022/08/29 18:27:44;;;;;;;9.23;6.27;;;;;24.90;98986.00;;;;16661220;28;20294;-48
2022/08/29 18:35:47;;;;;;;7.90;6.30;;;;;24.30;98987.00;;;;16672471;28;20214;-47
2022/08/29 18:43:50;;;;;;;8.73;7.50;;;;;24.20;98996.00;;;;16664598;28;20271;-48
2022/08/29 18:51:54;;;;;;;7.37;6.60;;;;;23.60;99004.00;;;;16664187;28;20231;-48
2022/08/29 18:59:56;;;;;;;8.43;6.50;;;;;23.30;99018.00;;;;16662549;28;20215;-48
2022/08/29 19:08:01;;;;;;;7.30;6.60;;;;;23.10;99022.00;;;;16663002;28;20321;-48
2022/08/29 19:16:05;;;;;;;8.53;6.93;;;;;22.80;99027.00;;;;16661479;28;20658;-48
2022/08/29 19:24:09;;;;;;;7.43;6.83;;;;;22.80;99031.00;;;;16661085;28;20282;-50
2022/08/29 19:32:11;;;;;;;8.03;6.43;;;;;22.80;99028.00;;;;16661100;28;20218;-50
2022/08/29 19:40:17;;;;;;;7.30;6.70;;;;;22.70;99026.00;;;;16661082;28;20215;-50
2022/08/29 19:48:20;;;;;;;8.10;7.40;;;;;22.40;99031.00;;;;16660332;28;20317;-50
2022/08/29 19:56:23;;;;;;;8.97;7.80;;;;;22.10;99028.00;;;;16659589;28;20313;-48
2022/08/29 20:04:26;;;;;;;9.00;8.20;;;;;21.70;99041.00;;;;16659418;28;20365;-50
2022/08/29 20:12:32;;;;;;;7.90;7.13;;;;;21.80;99058.00;;;;16658458;28;20224;-50
2022/08/29 20:20:35;;;;;;;9.40;8.60;;;;;21.50;99063.00;;;;16658412;28;20691;-48
2022/08/29 20:28:40;;;;;;;9.00;8.20;;;;;21.60;99058.00;;;;16659442;28;20298;-48
2022/08/29 20:45:06;;;;;;;7.80;6.83;;;;;21.50;99065.00;;;;16681633;28;20233;-48
2022/08/29 20:53:09;;;;;;;11.10;7.90;;;;;21.20;99067.00;;;;16655220;28;20210;-48
2022/08/29 21:01:13;;;;;;;10.53;7.40;;;;;21.20;99067.00;;;;16656101;28;20309;-47
2022/08/29 21:09:15;;;;;;;8.33;7.53;;;;;21.10;99076.00;;;;16655994;28;20230;-48
2022/08/29 21:17:19;;;;;;;10.60;8.10;;;;;21.20;99080.00;;;;16652348;28;20218;-48
2022/08/29 21:25:21;;;;;;;7.03;6.40;;;;;21.40;99078.00;;;;16653734;28;20268;-48
2022/08/29 21:33:25;;;;;;;8.40;7.57;;;;;21.20;99089.00;;;;16654318;28;20218;-48
2022/08/29 21:41:29;;;;;;;7.10;6.50;;;;;21.20;99093.00;;;;16654089;28;20340;-48
2022/08/29 21:49:35;;;;;;;8.80;7.93;;;;;21.30;99085.00;;;;16650112;28;20325;-48
2022/08/29 21:57:55;;;;;;;7.50;6.80;;;;;21.30;99093.00;;;;16659940;22;20244;-75
2022/08/29 22:05:59;;;;;;;7.03;6.50;;;;;21.10;99090.00;;;;16633753;28;20226;-75
2022/08/29 22:14:01;;;;;;;7.63;6.93;;;;;21.00;99079.00;;;;16698919;22;20640;-48
2022/08/29 22:22:08;;;;;;;7.80;7.10;;;;;21.10;99082.00;;;;16698699;28;20364;-49
2022/08/29 22:30:12;;;;;;;7.43;6.67;;;;;21.00;99090.00;;;;16667658;28;20223;-49
2022/08/29 22:38:16;;;;;;;7.57;6.90;;;;;20.70;99084.00;;;;16651508;28;20920;-49
2022/08/29 22:46:21;;;;;;;7.83;7.00;;;;;20.50;99075.00;;;;16671797;28;20553;-49
2022/08/29 22:54:36;;;;;;;8.00;7.20;;;;;20.30;99080.00;;;;16653905;28;20206;-49
2022/08/29 23:02:39;;;;;;;8.97;7.70;;;;;20.10;99084.00;;;;16651026;28;20288;-51
2022/08/29 23:10:43;;;;;;;7.47;6.73;;;;;20.10;99083.00;;;;16651409;28;20221;-51
2022/08/29 23:18:46;;;;;;;7.60;6.90;;;;;19.90;99074.00;;;;16660152;28;20214;-50
2022/08/29 23:26:50;;;;;;;7.43;6.73;;;;;19.80;99083.00;;;;16675972;28;20287;-51
2022/08/29 23:34:52;;;;;;;6.90;6.30;;;;;19.90;99079.00;;;;16660253;28;20310;-49
2022/08/29 23:42:56;;;;;;;7.57;6.87;;;;;19.50;99088.00;;;;16659492;28;20197;-51
2022/08/29 23:50:59;;;;;;;7.00;6.40;;;;;19.20;99080.00;;;;16668087;28;20596;-49
2022/08/29 23:59:03;;;;;;;8.53;7.00;;;;;19.30;99078.00;;;;16659614;28;20206;-51
